Kohat Weather



Kohat's Current Weather

Temprature 21o haze

haze

Rain: 0 %

Min Temprature21o
Max Temprature21o
Humidity73
Wind Speed4.1 m/h
Sun Rise05:37:07
Sun Set18:48:36
Current Time: 21-Apr-2019 05:29:42
Lat/Lon: 33.6, 71.44




Kohat's Geo Location



Kohat's Weather Forecast

Time Overall Temp Min Temp Max Temp Humidity Wind Speed Rain
21-Apr-2019 (Sun)
08:00:00 clear sky 23.190 22.629 23.190 40 0.94 m/h 0 %
11:00:00 clear sky 26.230 25.850 26.230 33 2.68 m/h 0 %
14:00:00 clear sky 28.140 27.950 28.140 28 4.26 m/h 0 %
17:00:00 clear sky 27.950 27.950 27.950 27 3.69 m/h 0 %
20:00:00 few clouds 22.850 22.850 22.850 44 0.8 m/h 0 %
23:00:00 few clouds 21.410 21.410 21.410 46 0.93 m/h 0 %
22-Apr-2019 (Mon)
02:00:00 few clouds 19.770 19.770 19.770 50 0.63 m/h 0 %
05:00:00 clear sky 18.754 18.754 18.754 49 1.27 m/h 0 %
08:00:00 clear sky 24.276 24.276 24.276 34 0.89 m/h 0 %
11:00:00 clear sky 27.820 27.820 27.820 27 3.14 m/h 0 %
14:00:00 clear sky 30.315 30.315 30.315 21 5.56 m/h 0 %
17:00:00 clear sky 30.131 30.131 30.131 20 4.59 m/h 0 %
20:00:00 clear sky 24.150 24.150 24.150 35 1.16 m/h 0 %
23:00:00 clear sky 22.496 22.496 22.496 36 1.4 m/h 0 %
23-Apr-2019 (Tue)
02:00:00 overcast clouds 21.377 21.377 21.377 38 1.3 m/h 0 %
05:00:00 overcast clouds 21.316 21.316 21.316 37 1.73 m/h 0 %
08:00:00 overcast clouds 25.377 25.377 25.377 31 1.2 m/h 0 %
11:00:00 broken clouds 29.350 29.350 29.350 21 2.6 m/h 0 %
14:00:00 clear sky 31.850 31.850 31.850 17 5.79 m/h 0 %
17:00:00 scattered clouds 30.850 30.850 30.850 20 5.09 m/h 0 %
20:00:00 broken clouds 25.228 25.228 25.228 33 1.43 m/h 0 %
23:00:00 scattered clouds 23.650 23.650 23.650 34 1.89 m/h 0 %
24-Apr-2019 (Wed)
02:00:00 broken clouds 22.782 22.782 22.782 38 2.27 m/h 0 %
05:00:00 light rain 21.284 21.284 21.284 43 2.31 m/h 6 %
08:00:00 overcast clouds 25.050 25.050 25.050 33 1.78 m/h 0 %
11:00:00 broken clouds 28.609 28.609 28.609 26 3.27 m/h 0 %
14:00:00 light rain 25.950 25.950 25.950 34 5.87 m/h 19 %
17:00:00 light rain 24.050 24.050 24.050 39 2.18 m/h 181 %
20:00:00 light rain 21.455 21.455 21.455 51 3.09 m/h 25 %
23:00:00 light rain 20.445 20.445 20.445 52 1.48 m/h 31 %
25-Apr-2019 (Thu)
02:00:00 clear sky 18.650 18.650 18.650 49 1.55 m/h 0 %
05:00:00 clear sky 17.602 17.602 17.602 42 1.52 m/h 0 %
08:00:00 clear sky 23.420 23.420 23.420 25 0.21 m/h 0 %
11:00:00 clear sky 27.290 27.290 27.290 15 3.23 m/h 0 %
14:00:00 clear sky 29.450 29.450 29.450 9 5.93 m/h 0 %
17:00:00 clear sky 28.111 28.111 28.111 11 4.34 m/h 0 %
20:00:00 clear sky 23.125 23.125 23.125 12 2.7 m/h 0 %
23:00:00 clear sky 21.543 21.543 21.543 14 2.49 m/h 0 %
26-Apr-2019 (Fri)
02:00:00 clear sky 21.032 21.032 21.032 21 3.14 m/h 0 %
05:00:00 clear sky 19.106 19.106 19.106 29 2.22 m/h 0 %

Famous Cities (60)